sensor_id;sensor_type;location;lat;lon;timestamp;P1;durP1;ratioP1;P2;durP2;ratioP2
21034;SDS011;10676;50.848;3.272;2023-11-21T00:00:17;235.07;;;215.70;;
21034;SDS011;10676;50.848;3.272;2023-11-21T00:02:43;239.30;;;219.60;;
21034;SDS011;10676;50.848;3.272;2023-11-21T00:05:11;246.10;;;225.98;;
21034;SDS011;10676;50.848;3.272;2023-11-21T00:07:39;237.05;;;215.95;;
21034;SDS011;10676;50.848;3.272;2023-11-21T00:10:05;236.20;;;215.85;;
21034;SDS011;10676;50.848;3.272;2023-11-21T00:12:32;246.77;;;226.73;;
21034;SDS011;10676;50.848;3.272;2023-11-21T00:14:58;238.15;;;217.70;;
21034;SDS011;10676;50.848;3.272;2023-11-21T00:17:24;238.50;;;218.77;;
21034;SDS011;10676;50.848;3.272;2023-11-21T00:19:49;246.43;;;225.27;;
21034;SDS011;10676;50.848;3.272;2023-11-21T00:22:17;250.38;;;229.77;;
21034;SDS011;10676;50.848;3.272;2023-11-21T00:24:43;244.32;;;224.13;;
21034;SDS011;10676;50.848;3.272;2023-11-21T00:27:09;255.10;;;234.35;;
21034;SDS011;10676;50.848;3.272;2023-11-21T00:29:35;250.63;;;230.20;;
21034;SDS011;10676;50.848;3.272;2023-11-21T00:32:00;245.52;;;224.90;;
21034;SDS011;10676;50.848;3.272;2023-11-21T00:34:27;249.63;;;228.82;;
21034;SDS011;10676;50.848;3.272;2023-11-21T00:36:52;251.80;;;231.15;;
21034;SDS011;10676;50.848;3.272;2023-11-21T00:39:18;251.82;;;231.13;;
21034;SDS011;10676;50.848;3.272;2023-11-21T00:41:44;255.02;;;234.10;;
21034;SDS011;10676;50.848;3.272;2023-11-21T00:44:10;258.38;;;236.48;;
21034;SDS011;10676;50.848;3.272;2023-11-21T00:46:36;251.95;;;230.25;;
21034;SDS011;10676;50.848;3.272;2023-11-21T00:49:02;248.68;;;227.35;;
21034;SDS011;10676;50.848;3.272;2023-11-21T00:51:29;248.68;;;227.93;;
21034;SDS011;10676;50.848;3.272;2023-11-21T00:53:55;253.63;;;232.60;;
21034;SDS011;10676;50.848;3.272;2023-11-21T00:56:21;248.93;;;226.90;;
21034;SDS011;10676;50.848;3.272;2023-11-21T00:58:46;236.00;;;216.50;;
21034;SDS011;10676;50.848;3.272;2023-11-21T01:01:15;240.40;;;220.57;;
21034;SDS011;10676;50.848;3.272;2023-11-21T01:03:41;250.95;;;231.55;;
21034;SDS011;10676;50.848;3.272;2023-11-21T01:06:07;248.32;;;228.63;;
21034;SDS011;10676;50.848;3.272;2023-11-21T01:08:34;258.83;;;235.20;;
21034;SDS011;10676;50.848;3.272;2023-11-21T01:11:00;252.93;;;231.43;;
21034;SDS011;10676;50.848;3.272;2023-11-21T01:13:26;243.23;;;223.02;;
21034;SDS011;10676;50.848;3.272;2023-11-21T01:15:55;252.23;;;232.38;;
21034;SDS011;10676;50.848;3.272;2023-11-21T01:18:21;248.30;;;227.93;;
21034;SDS011;10676;50.848;3.272;2023-11-21T01:20:47;258.45;;;236.68;;
21034;SDS011;10676;50.848;3.272;2023-11-21T01:23:13;254.32;;;233.55;;
21034;SDS011;10676;50.848;3.272;2023-11-21T01:25:39;267.35;;;245.27;;
21034;SDS011;10676;50.848;3.272;2023-11-21T01:28:05;261.67;;;240.98;;
21034;SDS011;10676;50.848;3.272;2023-11-21T01:30:30;255.63;;;234.25;;
21034;SDS011;10676;50.848;3.272;2023-11-21T01:32:57;253.60;;;232.38;;
21034;SDS011;10676;50.848;3.272;2023-11-21T01:35:23;254.32;;;233.85;;
21034;SDS011;10676;50.848;3.272;2023-11-21T01:37:49;260.52;;;239.65;;
21034;SDS011;10676;50.848;3.272;2023-11-21T01:40:15;260.27;;;239.48;;
21034;SDS011;10676;50.848;3.272;2023-11-21T01:42:41;252.48;;;231.63;;
21034;SDS011;10676;50.848;3.272;2023-11-21T01:45:12;263.23;;;240.45;;
21034;SDS011;10676;50.848;3.272;2023-11-21T01:47:40;251.25;;;230.25;;
21034;SDS011;10676;50.848;3.272;2023-11-21T01:50:07;259.70;;;237.15;;
21034;SDS011;10676;50.848;3.272;2023-11-21T01:52:36;259.85;;;238.20;;
21034;SDS011;10676;50.848;3.272;2023-11-21T01:55:04;255.82;;;233.95;;
21034;SDS011;10676;50.848;3.272;2023-11-21T01:57:31;252.15;;;230.88;;
21034;SDS011;10676;50.848;3.272;2023-11-21T01:59:57;254.40;;;232.85;;
21034;SDS011;10676;50.848;3.272;2023-11-21T02:02:26;261.63;;;239.00;;
21034;SDS011;10676;50.848;3.272;2023-11-21T02:04:51;261.35;;;239.18;;
21034;SDS011;10676;50.848;3.272;2023-11-21T02:07:17;251.65;;;229.93;;
21034;SDS011;10676;50.848;3.272;2023-11-21T02:09:44;250.32;;;228.30;;
21034;SDS011;10676;50.848;3.272;2023-11-21T02:12:10;252.27;;;231.30;;
21034;SDS011;10676;50.848;3.272;2023-11-21T02:14:36;253.25;;;232.00;;
21034;SDS011;10676;50.848;3.272;2023-11-21T02:17:01;262.17;;;240.48;;
21034;SDS011;10676;50.848;3.272;2023-11-21T02:19:28;251.45;;;229.70;;
21034;SDS011;10676;50.848;3.272;2023-11-21T02:21:56;254.32;;;232.30;;
21034;SDS011;10676;50.848;3.272;2023-11-21T02:24:31;255.90;;;234.20;;
21034;SDS011;10676;50.848;3.272;2023-11-21T02:26:57;252.02;;;229.57;;
21034;SDS011;10676;50.848;3.272;2023-11-21T02:29:22;249.65;;;227.75;;
21034;SDS011;10676;50.848;3.272;2023-11-21T02:31:52;264.52;;;242.38;;
21034;SDS011;10676;50.848;3.272;2023-11-21T02:34:19;255.00;;;233.27;;
21034;SDS011;10676;50.848;3.272;2023-11-21T02:36:45;254.20;;;233.32;;
21034;SDS011;10676;50.848;3.272;2023-11-21T02:39:12;256.40;;;234.32;;
21034;SDS011;10676;50.848;3.272;2023-11-21T02:41:38;260.75;;;237.80;;
21034;SDS011;10676;50.848;3.272;2023-11-21T02:44:04;250.75;;;228.80;;
21034;SDS011;10676;50.848;3.272;2023-11-21T02:46:31;251.45;;;228.02;;
21034;SDS011;10676;50.848;3.272;2023-11-21T02:49:01;249.63;;;226.57;;
21034;SDS011;10676;50.848;3.272;2023-11-21T02:51:27;249.57;;;226.73;;
21034;SDS011;10676;50.848;3.272;2023-11-21T02:53:52;250.18;;;227.88;;
21034;SDS011;10676;50.848;3.272;2023-11-21T02:56:18;255.25;;;231.65;;
21034;SDS011;10676;50.848;3.272;2023-11-21T02:58:44;242.27;;;219.88;;
21034;SDS011;10676;50.848;3.272;2023-11-21T03:01:10;243.10;;;220.27;;
21034;SDS011;10676;50.848;3.272;2023-11-21T03:03:36;249.52;;;227.10;;
21034;SDS011;10676;50.848;3.272;2023-11-21T03:06:05;249.70;;;227.43;;
21034;SDS011;10676;50.848;3.272;2023-11-21T03:08:31;254.95;;;232.43;;
21034;SDS011;10676;50.848;3.272;2023-11-21T03:10:57;251.07;;;227.90;;
21034;SDS011;10676;50.848;3.272;2023-11-21T03:13:23;264.60;;;240.75;;
21034;SDS011;10676;50.848;3.272;2023-11-21T03:15:48;261.60;;;237.45;;
21034;SDS011;10676;50.848;3.272;2023-11-21T03:18:14;288.23;;;260.25;;
21034;SDS011;10676;50.848;3.272;2023-11-21T03:20:39;290.02;;;262.02;;
21034;SDS011;10676;50.848;3.272;2023-11-21T03:23:05;277.08;;;250.05;;
21034;SDS011;10676;50.848;3.272;2023-11-21T03:25:30;270.48;;;244.63;;
21034;SDS011;10676;50.848;3.272;2023-11-21T03:27:56;273.38;;;247.43;;
21034;SDS011;10676;50.848;3.272;2023-11-21T03:30:22;273.77;;;246.65;;
21034;SDS011;10676;50.848;3.272;2023-11-21T03:32:48;274.98;;;247.63;;
21034;SDS011;10676;50.848;3.272;2023-11-21T03:35:14;274.42;;;247.77;;
21034;SDS011;10676;50.848;3.272;2023-11-21T03:37:39;257.20;;;232.35;;
21034;SDS011;10676;50.848;3.272;2023-11-21T03:40:07;242.45;;;218.88;;
21034;SDS011;10676;50.848;3.272;2023-11-21T03:42:37;240.88;;;218.85;;
21034;SDS011;10676;50.848;3.272;2023-11-21T03:45:04;234.95;;;211.50;;
21034;SDS011;10676;50.848;3.272;2023-11-21T03:47:30;228.18;;;206.65;;
21034;SDS011;10676;50.848;3.272;2023-11-21T03:49:55;226.05;;;200.50;;
21034;SDS011;10676;50.848;3.272;2023-11-21T03:52:21;223.77;;;202.82;;
21034;SDS011;10676;50.848;3.272;2023-11-21T03:54:47;231.63;;;206.63;;
21034;SDS011;10676;50.848;3.272;2023-11-21T03:57:12;224.15;;;202.20;;
21034;SDS011;10676;50.848;3.272;2023-11-21T03:59:41;225.57;;;204.43;;
21034;SDS011;10676;50.848;3.272;2023-11-21T04:02:08;223.85;;;201.27;;
21034;SDS011;10676;50.848;3.272;2023-11-21T04:04:34;224.70;;;203.32;;
21034;SDS011;10676;50.848;3.272;2023-11-21T04:07:01;228.73;;;205.23;;
21034;SDS011;10676;50.848;3.272;2023-11-21T04:09:26;225.07;;;204.00;;
21034;SDS011;10676;50.848;3.272;2023-11-21T04:11:53;218.63;;;195.75;;
21034;SDS011;10676;50.848;3.272;2023-11-21T04:14:19;215.90;;;195.30;;
21034;SDS011;10676;50.848;3.272;2023-11-21T04:16:45;218.82;;;197.02;;
21034;SDS011;10676;50.848;3.272;2023-11-21T04:19:11;223.25;;;201.65;;
21034;SDS011;10676;50.848;3.272;2023-11-21T04:21:39;224.45;;;202.20;;
21034;SDS011;10676;50.848;3.272;2023-11-21T04:24:05;214.85;;;194.25;;
21034;SDS011;10676;50.848;3.272;2023-11-21T04:26:31;214.75;;;192.13;;
21034;SDS011;10676;50.848;3.272;2023-11-21T04:28:57;216.38;;;195.07;;
21034;SDS011;10676;50.848;3.272;2023-11-21T04:31:23;208.43;;;186.65;;
21034;SDS011;10676;50.848;3.272;2023-11-21T04:33:48;209.65;;;182.98;;
21034;SDS011;10676;50.848;3.272;2023-11-21T04:36:14;218.00;;;184.65;;
21034;SDS011;10676;50.848;3.272;2023-11-21T04:38:39;212.63;;;185.60;;
21034;SDS011;10676;50.848;3.272;2023-11-21T04:41:06;217.63;;;194.02;;
21034;SDS011;10676;50.848;3.272;2023-11-21T04:43:32;212.27;;;189.77;;
21034;SDS011;10676;50.848;3.272;2023-11-21T04:45:58;210.00;;;187.75;;
21034;SDS011;10676;50.848;3.272;2023-11-21T04:48:23;219.57;;;195.48;;
21034;SDS011;10676;50.848;3.272;2023-11-21T04:50:49;213.57;;;191.10;;
21034;SDS011;10676;50.848;3.272;2023-11-21T04:53:14;220.50;;;198.23;;
21034;SDS011;10676;50.848;3.272;2023-11-21T04:55:40;222.15;;;198.25;;
21034;SDS011;10676;50.848;3.272;2023-11-21T04:58:06;210.82;;;188.45;;
21034;SDS011;10676;50.848;3.272;2023-11-21T05:00:33;218.73;;;195.32;;
21034;SDS011;10676;50.848;3.272;2023-11-21T05:02:59;209.55;;;188.90;;
21034;SDS011;10676;50.848;3.272;2023-11-21T05:05:26;214.85;;;193.38;;
21034;SDS011;10676;50.848;3.272;2023-11-21T05:07:52;215.05;;;193.88;;
21034;SDS011;10676;50.848;3.272;2023-11-21T05:10:18;221.98;;;200.65;;
21034;SDS011;10676;50.848;3.272;2023-11-21T05:12:45;209.13;;;189.32;;
21034;SDS011;10676;50.848;3.272;2023-11-21T05:15:15;214.43;;;192.95;;
21034;SDS011;10676;50.848;3.272;2023-11-21T05:17:45;221.80;;;200.30;;
21034;SDS011;10676;50.848;3.272;2023-11-21T05:20:18;216.80;;;196.48;;
21034;SDS011;10676;50.848;3.272;2023-11-21T05:22:48;218.65;;;197.70;;
21034;SDS011;10676;50.848;3.272;2023-11-21T05:25:14;224.38;;;202.88;;
21034;SDS011;10676;50.848;3.272;2023-11-21T05:27:41;224.93;;;203.68;;
21034;SDS011;10676;50.848;3.272;2023-11-21T05:30:07;223.55;;;203.35;;
21034;SDS011;10676;50.848;3.272;2023-11-21T05:32:37;224.57;;;205.38;;
21034;SDS011;10676;50.848;3.272;2023-11-21T05:35:04;222.45;;;202.15;;
21034;SDS011;10676;50.848;3.272;2023-11-21T05:37:35;223.38;;;200.85;;
21034;SDS011;10676;50.848;3.272;2023-11-21T05:40:01;224.38;;;201.98;;
21034;SDS011;10676;50.848;3.272;2023-11-21T05:42:31;219.02;;;197.48;;
21034;SDS011;10676;50.848;3.272;2023-11-21T05:44:59;220.02;;;199.73;;
21034;SDS011;10676;50.848;3.272;2023-11-21T05:47:35;212.68;;;192.85;;
21034;SDS011;10676;50.848;3.272;2023-11-21T05:50:09;219.48;;;199.18;;
21034;SDS011;10676;50.848;3.272;2023-11-21T05:52:39;215.65;;;194.82;;
21034;SDS011;10676;50.848;3.272;2023-11-21T05:55:09;222.70;;;200.75;;
21034;SDS011;10676;50.848;3.272;2023-11-21T05:57:35;216.27;;;194.63;;
21034;SDS011;10676;50.848;3.272;2023-11-21T06:00:06;219.60;;;196.90;;
21034;SDS011;10676;50.848;3.272;2023-11-21T06:02:40;220.25;;;198.57;;
21034;SDS011;10676;50.848;3.272;2023-11-21T06:05:08;216.18;;;196.00;;
21034;SDS011;10676;50.848;3.272;2023-11-21T06:07:35;216.13;;;195.45;;
21034;SDS011;10676;50.848;3.272;2023-11-21T06:10:05;211.32;;;190.32;;
21034;SDS011;10676;50.848;3.272;2023-11-21T06:12:35;212.68;;;190.80;;
21034;SDS011;10676;50.848;3.272;2023-11-21T06:15:04;211.60;;;190.27;;
21034;SDS011;10676;50.848;3.272;2023-11-21T06:17:34;207.35;;;186.73;;
21034;SDS011;10676;50.848;3.272;2023-11-21T06:20:04;212.07;;;191.35;;
21034;SDS011;10676;50.848;3.272;2023-11-21T06:22:43;214.07;;;192.57;;
21034;SDS011;10676;50.848;3.272;2023-11-21T06:25:10;217.80;;;193.82;;
21034;SDS011;10676;50.848;3.272;2023-11-21T06:27:44;216.18;;;193.80;;
21034;SDS011;10676;50.848;3.272;2023-11-21T06:30:11;214.15;;;191.52;;
21034;SDS011;10676;50.848;3.272;2023-11-21T06:32:40;221.77;;;197.70;;
21034;SDS011;10676;50.848;3.272;2023-11-21T06:35:06;234.30;;;192.18;;
21034;SDS011;10676;50.848;3.272;2023-11-21T06:37:34;230.77;;;197.90;;
21034;SDS011;10676;50.848;3.272;2023-11-21T06:40:01;242.10;;;193.63;;
21034;SDS011;10676;50.848;3.272;2023-11-21T06:42:28;253.50;;;191.50;;
21034;SDS011;10676;50.848;3.272;2023-11-21T06:44:54;220.10;;;192.45;;
21034;SDS011;10676;50.848;3.272;2023-11-21T06:47:22;212.07;;;190.88;;
21034;SDS011;10676;50.848;3.272;2023-11-21T06:49:51;209.88;;;187.45;;
21034;SDS011;10676;50.848;3.272;2023-11-21T06:52:18;232.15;;;181.10;;
21034;SDS011;10676;50.848;3.272;2023-11-21T06:54:44;206.60;;;184.00;;
21034;SDS011;10676;50.848;3.272;2023-11-21T06:57:10;275.02;;;183.23;;
21034;SDS011;10676;50.848;3.272;2023-11-21T06:59:36;238.80;;;177.90;;
21034;SDS011;10676;50.848;3.272;2023-11-21T07:02:02;227.85;;;183.07;;
21034;SDS011;10676;50.848;3.272;2023-11-21T07:04:29;228.60;;;178.48;;
21034;SDS011;10676;50.848;3.272;2023-11-21T07:06:55;267.27;;;179.85;;
21034;SDS011;10676;50.848;3.272;2023-11-21T07:09:21;298.08;;;185.43;;
21034;SDS011;10676;50.848;3.272;2023-11-21T07:11:50;259.17;;;182.65;;
21034;SDS011;10676;50.848;3.272;2023-11-21T07:14:16;210.70;;;174.73;;
21034;SDS011;10676;50.848;3.272;2023-11-21T07:16:44;277.55;;;177.63;;
21034;SDS011;10676;50.848;3.272;2023-11-21T07:19:11;240.73;;;181.27;;
21034;SDS011;10676;50.848;3.272;2023-11-21T07:21:37;280.27;;;187.75;;
21034;SDS011;10676;50.848;3.272;2023-11-21T07:24:07;261.52;;;178.43;;
21034;SDS011;10676;50.848;3.272;2023-11-21T07:26:33;222.00;;;180.60;;
21034;SDS011;10676;50.848;3.272;2023-11-21T07:29:00;278.00;;;185.68;;
21034;SDS011;10676;50.848;3.272;2023-11-21T07:31:27;203.77;;;181.77;;
21034;SDS011;10676;50.848;3.272;2023-11-21T07:33:54;198.60;;;177.98;;
21034;SDS011;10676;50.848;3.272;2023-11-21T07:36:22;198.25;;;177.32;;
21034;SDS011;10676;50.848;3.272;2023-11-21T07:38:48;218.70;;;176.38;;
21034;SDS011;10676;50.848;3.272;2023-11-21T07:41:15;189.93;;;170.25;;
21034;SDS011;10676;50.848;3.272;2023-11-21T07:43:41;193.15;;;168.90;;
21034;SDS011;10676;50.848;3.272;2023-11-21T07:46:07;187.93;;;167.30;;
21034;SDS011;10676;50.848;3.272;2023-11-21T07:48:33;207.70;;;164.52;;
21034;SDS011;10676;50.848;3.272;2023-11-21T07:51:00;187.70;;;167.18;;
21034;SDS011;10676;50.848;3.272;2023-11-21T07:53:27;179.88;;;160.88;;
21034;SDS011;10676;50.848;3.272;2023-11-21T07:55:55;191.05;;;171.60;;
21034;SDS011;10676;50.848;3.272;2023-11-21T07:58:21;211.55;;;190.75;;
21034;SDS011;10676;50.848;3.272;2023-11-21T08:00:47;232.35;;;208.90;;
21034;SDS011;10676;50.848;3.272;2023-11-21T08:03:13;210.48;;;189.65;;
21034;SDS011;10676;50.848;3.272;2023-11-21T08:05:39;207.50;;;188.35;;
21034;SDS011;10676;50.848;3.272;2023-11-21T08:08:04;210.60;;;190.75;;
21034;SDS011;10676;50.848;3.272;2023-11-21T08:10:30;201.43;;;182.50;;
21034;SDS011;10676;50.848;3.272;2023-11-21T08:12:56;200.05;;;180.93;;
21034;SDS011;10676;50.848;3.272;2023-11-21T08:15:22;189.40;;;170.85;;
21034;SDS011;10676;50.848;3.272;2023-11-21T08:17:47;184.88;;;167.40;;
21034;SDS011;10676;50.848;3.272;2023-11-21T08:20:13;180.40;;;162.60;;
21034;SDS011;10676;50.848;3.272;2023-11-21T08:22:43;178.98;;;162.60;;
21034;SDS011;10676;50.848;3.272;2023-11-21T08:25:09;191.68;;;175.07;;
21034;SDS011;10676;50.848;3.272;2023-11-21T08:27:35;188.82;;;172.52;;
21034;SDS011;10676;50.848;3.272;2023-11-21T08:30:01;180.70;;;164.38;;
21034;SDS011;10676;50.848;3.272;2023-11-21T08:32:28;185.18;;;168.98;;
21034;SDS011;10676;50.848;3.272;2023-11-21T08:34:57;176.02;;;159.85;;
21034;SDS011;10676;50.848;3.272;2023-11-21T08:37:23;175.15;;;159.82;;
21034;SDS011;10676;50.848;3.272;2023-11-21T08:39:48;173.07;;;157.85;;
21034;SDS011;10676;50.848;3.272;2023-11-21T08:42:14;167.77;;;152.60;;
21034;SDS011;10676;50.848;3.272;2023-11-21T08:44:40;163.25;;;148.93;;
21034;SDS011;10676;50.848;3.272;2023-11-21T08:47:06;156.15;;;141.85;;
21034;SDS011;10676;50.848;3.272;2023-11-21T08:49:32;156.45;;;142.57;;
21034;SDS011;10676;50.848;3.272;2023-11-21T08:51:59;155.20;;;140.85;;
21034;SDS011;10676;50.848;3.272;2023-11-21T08:54:25;151.90;;;138.52;;
21034;SDS011;10676;50.848;3.272;2023-11-21T08:56:51;147.20;;;133.60;;
21034;SDS011;10676;50.848;3.272;2023-11-21T08:59:18;146.30;;;133.35;;
21034;SDS011;10676;50.848;3.272;2023-11-21T09:01:45;142.57;;;130.10;;
21034;SDS011;10676;50.848;3.272;2023-11-21T09:04:11;140.32;;;128.07;;
21034;SDS011;10676;50.848;3.272;2023-11-21T09:06:38;138.70;;;126.97;;
21034;SDS011;10676;50.848;3.272;2023-11-21T09:09:05;124.40;;;113.70;;
21034;SDS011;10676;50.848;3.272;2023-11-21T09:11:34;118.47;;;108.53;;
21034;SDS011;10676;50.848;3.272;2023-11-21T09:14:01;108.97;;;99.82;;
21034;SDS011;10676;50.848;3.272;2023-11-21T09:16:31;100.57;;;92.45;;
21034;SDS011;10676;50.848;3.272;2023-11-21T09:18:58;85.80;;;78.75;;
21034;SDS011;10676;50.848;3.272;2023-11-21T09:21:24;71.75;;;66.15;;
21034;SDS011;10676;50.848;3.272;2023-11-21T09:23:50;65.65;;;60.72;;
21034;SDS011;10676;50.848;3.272;2023-11-21T09:26:16;58.60;;;54.08;;
21034;SDS011;10676;50.848;3.272;2023-11-21T09:28:43;45.25;;;41.78;;
21034;SDS011;10676;50.848;3.272;2023-11-21T09:31:12;38.15;;;35.30;;
21034;SDS011;10676;50.848;3.272;2023-11-21T09:33:40;32.33;;;29.85;;
21034;SDS011;10676;50.848;3.272;2023-11-21T09:36:12;30.27;;;28.05;;
21034;SDS011;10676;50.848;3.272;2023-11-21T09:38:40;26.83;;;24.73;;
21034;SDS011;10676;50.848;3.272;2023-11-21T09:41:11;22.10;;;20.33;;
21034;SDS011;10676;50.848;3.272;2023-11-21T09:43:55;22.05;;;20.67;;
21034;SDS011;10676;50.848;3.272;2023-11-21T09:46:26;19.08;;;17.80;;
21034;SDS011;10676;50.848;3.272;2023-11-21T09:48:55;18.40;;;17.10;;
21034;SDS011;10676;50.848;3.272;2023-11-21T09:51:26;18.05;;;16.70;;
21034;SDS011;10676;50.848;3.272;2023-11-21T09:53:55;17.83;;;16.60;;
21034;SDS011;10676;50.848;3.272;2023-11-21T09:56:24;16.00;;;14.85;;
21034;SDS011;10676;50.848;3.272;2023-11-21T09:58:52;15.50;;;14.13;;
21034;SDS011;10676;50.848;3.272;2023-11-21T10:01:19;15.15;;;14.05;;
21034;SDS011;10676;50.848;3.272;2023-11-21T10:03:47;13.48;;;12.45;;
21034;SDS011;10676;50.848;3.272;2023-11-21T10:06:13;14.23;;;13.25;;
21034;SDS011;10676;50.848;3.272;2023-11-21T10:08:41;14.45;;;13.23;;
21034;SDS011;10676;50.848;3.272;2023-11-21T10:11:10;14.55;;;13.55;;
21034;SDS011;10676;50.848;3.272;2023-11-21T10:13:37;14.27;;;13.02;;
21034;SDS011;10676;50.848;3.272;2023-11-21T10:16:04;14.73;;;13.43;;
21034;SDS011;10676;50.848;3.272;2023-11-21T10:18:32;16.35;;;14.05;;
21034;SDS011;10676;50.848;3.272;2023-11-21T10:20:59;14.95;;;13.45;;
21034;SDS011;10676;50.848;3.272;2023-11-21T10:23:25;15.07;;;13.85;;
21034;SDS011;10676;50.848;3.272;2023-11-21T10:25:52;16.15;;;14.68;;
21034;SDS011;10676;50.848;3.272;2023-11-21T10:28:18;17.70;;;16.33;;
21034;SDS011;10676;50.848;3.272;2023-11-21T10:30:45;19.00;;;17.08;;
21034;SDS011;10676;50.848;3.272;2023-11-21T10:33:11;43.20;;;39.85;;
21034;SDS011;10676;50.848;3.272;2023-11-21T10:35:47;51.00;;;47.40;;
21034;SDS011;10676;50.848;3.272;2023-11-21T10:38:19;52.80;;;49.05;;
21034;SDS011;10676;50.848;3.272;2023-11-21T10:40:50;55.15;;;51.45;;
21034;SDS011;10676;50.848;3.272;2023-11-21T10:43:17;61.08;;;56.58;;
21034;SDS011;10676;50.848;3.272;2023-11-21T10:45:43;63.58;;;58.97;;
21034;SDS011;10676;50.848;3.272;2023-11-21T10:48:10;63.80;;;59.17;;
21034;SDS011;10676;50.848;3.272;2023-11-21T10:50:41;61.20;;;56.97;;
21034;SDS011;10676;50.848;3.272;2023-11-21T10:53:07;61.53;;;57.13;;
21034;SDS011;10676;50.848;3.272;2023-11-21T10:55:33;62.33;;;57.75;;
21034;SDS011;10676;50.848;3.272;2023-11-21T10:58:01;64.72;;;59.65;;
21034;SDS011;10676;50.848;3.272;2023-11-21T11:00:29;61.42;;;56.90;;
21034;SDS011;10676;50.848;3.272;2023-11-21T11:02:56;58.35;;;54.03;;
21034;SDS011;10676;50.848;3.272;2023-11-21T11:05:23;58.50;;;53.72;;
21034;SDS011;10676;50.848;3.272;2023-11-21T11:07:51;59.17;;;54.58;;
21034;SDS011;10676;50.848;3.272;2023-11-21T11:10:27;56.08;;;52.05;;
21034;SDS011;10676;50.848;3.272;2023-11-21T11:12:54;56.65;;;52.42;;
21034;SDS011;10676;50.848;3.272;2023-11-21T11:15:22;51.85;;;47.85;;
21034;SDS011;10676;50.848;3.272;2023-11-21T11:17:48;50.05;;;46.28;;
21034;SDS011;10676;50.848;3.272;2023-11-21T11:20:14;53.25;;;49.45;;
21034;SDS011;10676;50.848;3.272;2023-11-21T11:22:44;52.28;;;48.63;;
21034;SDS011;10676;50.848;3.272;2023-11-21T11:30:41;35.17;;;32.53;;
21034;SDS011;10676;50.848;3.272;2023-11-21T11:36:15;31.60;;;28.92;;
21034;SDS011;10676;50.848;3.272;2023-11-21T11:38:48;29.60;;;27.40;;
21034;SDS011;10676;50.848;3.272;2023-11-21T11:41:27;28.17;;;25.98;;
21034;SDS011;10676;50.848;3.272;2023-11-21T11:43:55;26.85;;;24.77;;
21034;SDS011;10676;50.848;3.272;2023-11-21T11:46:39;23.58;;;21.38;;
21034;SDS011;10676;50.848;3.272;2023-11-21T11:49:11;21.52;;;19.30;;
21034;SDS011;10676;50.848;3.272;2023-11-21T11:52:11;17.67;;;16.13;;
21034;SDS011;10676;50.848;3.272;2023-11-21T11:54:54;16.73;;;14.98;;
21034;SDS011;10676;50.848;3.272;2023-11-21T11:57:23;14.68;;;13.30;;
21034;SDS011;10676;50.848;3.272;2023-11-21T12:02:50;13.43;;;12.10;;
21034;SDS011;10676;50.848;3.272;2023-11-21T12:05:17;15.70;;;12.50;;
21034;SDS011;10676;50.848;3.272;2023-11-21T12:10:20;13.27;;;12.32;;
21034;SDS011;10676;50.848;3.272;2023-11-21T12:12:50;13.07;;;11.70;;
21034;SDS011;10676;50.848;3.272;2023-11-21T12:15:17;13.15;;;11.95;;
21034;SDS011;10676;50.848;3.272;2023-11-21T12:17:44;12.40;;;11.25;;
21034;SDS011;10676;50.848;3.272;2023-11-21T12:20:14;11.73;;;10.65;;
21034;SDS011;10676;50.848;3.272;2023-11-21T12:22:43;12.30;;;11.23;;
21034;SDS011;10676;50.848;3.272;2023-11-21T12:25:14;14.00;;;11.95;;
21034;SDS011;10676;50.848;3.272;2023-11-21T12:27:42;12.25;;;11.15;;
21034;SDS011;10676;50.848;3.272;2023-11-21T12:30:09;13.38;;;11.48;;
21034;SDS011;10676;50.848;3.272;2023-11-21T12:32:39;13.35;;;10.35;;
21034;SDS011;10676;50.848;3.272;2023-11-21T12:35:06;11.65;;;9.77;;
21034;SDS011;10676;50.848;3.272;2023-11-21T12:37:35;10.43;;;8.43;;
21034;SDS011;10676;50.848;3.272;2023-11-21T12:40:05;12.15;;;8.80;;
21034;SDS011;10676;50.848;3.272;2023-11-21T12:42:33;10.20;;;9.02;;
21034;SDS011;10676;50.848;3.272;2023-11-21T12:45:10;11.85;;;9.13;;
21034;SDS011;10676;50.848;3.272;2023-11-21T12:47:40;11.63;;;9.25;;
21034;SDS011;10676;50.848;3.272;2023-11-21T12:50:07;12.60;;;9.23;;
21034;SDS011;10676;50.848;3.272;2023-11-21T12:52:39;10.73;;;8.30;;
21034;SDS011;10676;50.848;3.272;2023-11-21T12:55:21;9.07;;;8.38;;
21034;SDS011;10676;50.848;3.272;2023-11-21T12:57:51;9.55;;;8.60;;
21034;SDS011;10676;50.848;3.272;2023-11-21T13:00:27;9.48;;;8.20;;
21034;SDS011;10676;50.848;3.272;2023-11-21T13:03:02;8.52;;;8.02;;
21034;SDS011;10676;50.848;3.272;2023-11-21T13:05:35;9.60;;;8.27;;
21034;SDS011;10676;50.848;3.272;2023-11-21T13:08:07;8.95;;;8.07;;
21034;SDS011;10676;50.848;3.272;2023-11-21T13:10:36;13.05;;;8.18;;
21034;SDS011;10676;50.848;3.272;2023-11-21T13:13:04;9.52;;;7.80;;
21034;SDS011;10676;50.848;3.272;2023-11-21T13:15:33;8.23;;;7.63;;
21034;SDS011;10676;50.848;3.272;2023-11-21T13:18:06;8.35;;;7.70;;
21034;SDS011;10676;50.848;3.272;2023-11-21T13:20:32;9.10;;;8.32;;
21034;SDS011;10676;50.848;3.272;2023-11-21T13:22:58;9.70;;;8.77;;
21034;SDS011;10676;50.848;3.272;2023-11-21T13:25:25;9.45;;;8.55;;
21034;SDS011;10676;50.848;3.272;2023-11-21T13:27:56;8.02;;;7.22;;
21034;SDS011;10676;50.848;3.272;2023-11-21T13:30:26;8.38;;;7.68;;
21034;SDS011;10676;50.848;3.272;2023-11-21T13:32:58;7.90;;;7.25;;
21034;SDS011;10676;50.848;3.272;2023-11-21T13:35:30;8.50;;;7.80;;
21034;SDS011;10676;50.848;3.272;2023-11-21T13:38:02;8.93;;;8.23;;
21034;SDS011;10676;50.848;3.272;2023-11-21T13:40:32;8.63;;;7.90;;
21034;SDS011;10676;50.848;3.272;2023-11-21T13:42:59;9.07;;;7.75;;
21034;SDS011;10676;50.848;3.272;2023-11-21T13:45:29;8.02;;;7.28;;
21034;SDS011;10676;50.848;3.272;2023-11-21T13:47:56;9.07;;;7.63;;
21034;SDS011;10676;50.848;3.272;2023-11-21T13:50:27;8.18;;;7.15;;
21034;SDS011;10676;50.848;3.272;2023-11-21T13:53:02;8.30;;;6.10;;
21034;SDS011;10676;50.848;3.272;2023-11-21T13:55:44;7.88;;;6.28;;
21034;SDS011;10676;50.848;3.272;2023-11-21T13:58:11;6.40;;;5.88;;
21034;SDS011;10676;50.848;3.272;2023-11-21T14:00:43;7.00;;;6.30;;
21034;SDS011;10676;50.848;3.272;2023-11-21T14:03:12;7.05;;;5.93;;
21034;SDS011;10676;50.848;3.272;2023-11-21T14:05:47;7.18;;;6.40;;
21034;SDS011;10676;50.848;3.272;2023-11-21T14:08:16;6.40;;;5.90;;
21034;SDS011;10676;50.848;3.272;2023-11-21T14:10:46;9.60;;;6.13;;
21034;SDS011;10676;50.848;3.272;2023-11-21T14:13:22;8.18;;;6.60;;
21034;SDS011;10676;50.848;3.272;2023-11-21T14:15:49;6.60;;;6.22;;
21034;SDS011;10676;50.848;3.272;2023-11-21T14:18:19;6.80;;;6.15;;
21034;SDS011;10676;50.848;3.272;2023-11-21T14:20:52;6.78;;;6.18;;
21034;SDS011;10676;50.848;3.272;2023-11-21T14:23:18;7.60;;;5.93;;
21034;SDS011;10676;50.848;3.272;2023-11-21T14:25:43;6.60;;;5.93;;